Portada
METAR-TAF:

METAR-TAF

Aeropuertos :

Aeropuerto de Anádyr-Úgolny

Anádyr, Rusia

latitud: 64-47N, longitud: 177-34E, altitud: 62 m

Observación

El informe se hizo hace 26 minutos, a las 21:00 UTC
Viento 10 kt del sureste
Temperatura 11°C
Humedad 66%
Presión 1011 hPa
Visibilidad 10 km o más
sin nubes por debajo de 1500 m y sin presencia de cumulonimbus.

METAR: UHMA 152100Z 14005MPS CAVOK 11/05 Q1011 R20/60D NOSIG RMK MID 15007MPS END R20/15007MPS QFE752/1003

Hora: 09:26 (21:26 UTC)

Pronóstico

El informe se hizo hace 1 hora y 29 minutos, a las 19:57 UTC
Pronóstico válido del 15 a las 21 UTC al 16 a las 21 UTC
Viento 10 kt del este-sureste con ráfagas de 19 kt
Visibilidad 10 km o más
Nubes dispersas a una altura de 3300 ft
Temporalmente
del 15 a las 21 UTC al 16 a las 21 UTC
Viento 17 kt del sur con ráfagas de 27 kt

TAF: UHMA 151957Z 1521/1621 12005G10MPS 9999 SCT033 TEMPO 1521/1621 17009G14MPS

Observaciones y pronósticos meteorológicos de más de 4000 aeropuertos (mensajes METAR y TAF).

Los puntos amarillos y rojos representan las estaciones disponibles.

Ponga el ratón en el punto deseado para ver el nombre de la estación.

Haga clic para ver las observaciones y los pronósticos meteorológicos.

Para cambiar el mapa : haga clic en los botones verdes con una cruz de color negro para hacer un zoom, en el botón verde con un guión para alejar o en las flechas verdes para mapas adyacentes.


METAR-TAF: